createdAt,value
2023-01-11T00:01:09.954Z,93.53
2023-01-11T00:03:37.277Z,93.55
2023-01-11T00:06:04.994Z,93.43
2023-01-11T00:08:32.384Z,93.52
2023-01-11T00:11:02.334Z,93.57
2023-01-11T00:13:31.581Z,93.73
2023-01-11T00:16:09.521Z,93.75
2023-01-11T00:18:38.223Z,93.68
2023-01-11T00:21:06.769Z,93.74
2023-01-11T00:23:35.647Z,93.73
2023-01-11T00:26:06.250Z,93.80
2023-01-11T00:28:34.269Z,93.63
2023-01-11T00:31:01.974Z,93.66
2023-01-11T00:33:29.330Z,93.55
2023-01-11T00:35:56.951Z,93.60
2023-01-11T00:38:43.389Z,93.71
2023-01-11T00:41:35.006Z,93.75
2023-01-11T00:44:22.808Z,93.76
2023-01-11T00:47:09.531Z,93.88
2023-01-11T00:49:37.115Z,93.83
2023-01-11T00:52:09.033Z,93.85
2023-01-11T00:54:38.883Z,93.86
2023-01-11T00:57:07.553Z,93.94
2023-01-11T00:59:36.136Z,93.76
2023-01-11T01:02:04.037Z,93.76
2023-01-11T01:04:31.945Z,93.84
2023-01-11T01:06:59.313Z,93.78
2023-01-11T01:09:26.939Z,93.91
2023-01-11T01:11:54.551Z,93.79
2023-01-11T01:14:33.379Z,93.71
2023-01-11T01:17:07.205Z,93.79
2023-01-11T01:19:37.904Z,93.79
2023-01-11T01:22:05.335Z,93.79
2023-01-11T01:24:33.973Z,94.02
2023-01-11T01:27:01.352Z,94.02
2023-01-11T01:29:28.763Z,93.98
2023-01-11T01:31:56.089Z,93.96
2023-01-11T01:34:23.481Z,93.83
2023-01-11T01:36:50.817Z,93.83
2023-01-11T01:39:18.411Z,93.78
2023-01-11T01:41:45.774Z,93.62
2023-01-11T01:45:00.037Z,93.71
2023-01-11T01:47:50.811Z,93.74
2023-01-11T01:50:25.997Z,93.85
2023-01-11T01:53:02.483Z,93.81
2023-01-11T01:55:36.991Z,93.84
2023-01-11T01:58:12.502Z,93.87
2023-01-11T02:00:45.844Z,94.04
2023-01-11T02:03:20.747Z,94.20
2023-01-11T02:05:50.266Z,94.09
2023-01-11T02:08:32.731Z,93.89
2023-01-11T02:11:01.113Z,93.72
2023-01-11T02:13:30.416Z,93.71
2023-01-11T02:16:09.989Z,93.78
2023-01-11T02:18:38.450Z,93.85
2023-01-11T02:22:07.518Z,93.85
2023-01-11T02:25:00.746Z,94.11
2023-01-11T02:28:07.787Z,94.14
2023-01-11T02:30:54.060Z,94.02
2023-01-11T02:33:32.340Z,94.27
2023-01-11T02:36:39.520Z,94.21
2023-01-11T02:39:34.406Z,94.27
2023-01-11T02:42:32.866Z,94.34
2023-01-11T02:45:42.485Z,94.48
2023-01-11T02:48:24.557Z,94.45
2023-01-11T02:51:13.523Z,94.43
2023-01-11T02:53:55.871Z,94.46
2023-01-11T02:56:28.189Z,94.45
2023-01-11T02:58:58.056Z,94.46
2023-01-11T03:01:25.714Z,94.45
2023-01-11T03:03:54.128Z,94.45
2023-01-11T03:06:28.685Z,94.46
2023-01-11T03:09:12.396Z,94.46
2023-01-11T03:12:10.411Z,94.41
2023-01-11T03:14:37.668Z,94.42
2023-01-11T03:17:13.907Z,94.47
2023-01-11T03:19:54.103Z,94.41
2023-01-11T03:23:08.982Z,94.46
2023-01-11T03:26:18.581Z,94.44
2023-01-11T03:29:20.630Z,94.31
2023-01-11T03:32:00.929Z,94.21
2023-01-11T03:34:49.163Z,94.19
2023-01-11T03:37:28.835Z,94.23
2023-01-11T03:40:05.974Z,94.23
2023-01-11T03:42:56.680Z,94.27
2023-01-11T03:45:27.672Z,94.32
2023-01-11T03:47:57.061Z,94.10
2023-01-11T03:50:27.164Z,94.05
2023-01-11T03:52:57.568Z,94.00
2023-01-11T03:55:30.517Z,93.67
2023-01-11T03:57:59.110Z,93.64
2023-01-11T04:00:29.989Z,93.64
2023-01-11T04:03:00.631Z,93.81
2023-01-11T04:05:29.051Z,93.97
2023-01-11T04:07:56.541Z,94.02
2023-01-11T04:10:23.971Z,93.84
2023-01-11T04:12:51.563Z,93.76
2023-01-11T04:15:18.880Z,93.90
2023-01-11T04:17:46.276Z,93.89
2023-01-11T04:20:13.825Z,93.90
2023-01-11T04:22:41.168Z,93.96
2023-01-11T04:25:09.809Z,94.09
2023-01-11T04:27:37.396Z,94.22
2023-01-11T04:30:05.416Z,94.31
2023-01-11T04:32:32.729Z,94.33
2023-01-11T04:35:00.237Z,94.40
2023-01-11T04:37:27.603Z,94.58
2023-01-11T04:39:55.089Z,94.63
2023-01-11T04:42:24.860Z,94.63
2023-01-11T04:44:53.071Z,94.68
2023-01-11T04:47:23.820Z,94.71
2023-01-11T04:49:51.673Z,94.73
2023-01-11T04:52:20.759Z,94.77
2023-01-11T04:54:48.981Z,94.78
2023-01-11T04:57:17.696Z,94.80
2023-01-11T04:59:48.240Z,94.76
2023-01-11T05:02:16.980Z,94.71
2023-01-11T05:04:44.401Z,94.56
2023-01-11T05:07:12.233Z,94.39
2023-01-11T05:09:40.841Z,94.45
2023-01-11T05:12:08.254Z,94.68
2023-01-11T05:14:35.572Z,94.91
2023-01-11T05:17:03.154Z,95.03
2023-01-11T05:19:30.524Z,95.19
2023-01-11T05:21:57.916Z,95.32
2023-01-11T05:24:25.450Z,95.35
2023-01-11T05:26:53.322Z,95.23
2023-01-11T05:29:21.257Z,95.27
2023-01-11T05:31:49.070Z,95.39
2023-01-11T05:34:17.638Z,95.42
2023-01-11T05:36:45.719Z,95.38
2023-01-11T05:39:14.766Z,95.25
2023-01-11T05:41:42.192Z,95.38
2023-01-11T05:44:32.057Z,95.42
2023-01-11T05:46:59.817Z,95.52
2023-01-11T05:49:27.345Z,95.52
2023-01-11T05:51:54.643Z,95.52
2023-01-11T05:54:22.152Z,95.49
2023-01-11T05:56:49.615Z,95.46
2023-01-11T05:59:16.999Z,95.45
2023-01-11T06:01:44.545Z,95.47
2023-01-11T06:04:11.863Z,95.41
2023-01-11T06:06:39.322Z,95.36
2023-01-11T06:09:06.671Z,95.39
2023-01-11T06:11:34.075Z,95.39
2023-01-11T06:14:01.543Z,95.37
2023-01-11T06:16:28.894Z,95.39
2023-01-11T06:18:56.387Z,95.39
2023-01-11T06:21:25.121Z,95.49
2023-01-11T06:23:52.719Z,95.51
2023-01-11T06:26:22.452Z,95.50
2023-01-11T06:28:51.051Z,95.54
2023-01-11T06:31:19.206Z,95.52
2023-01-11T06:33:47.578Z,95.55
2023-01-11T06:36:16.124Z,95.49
2023-01-11T06:38:44.611Z,95.46
2023-01-11T06:41:13.535Z,95.44
2023-01-11T06:43:42.101Z,95.33
2023-01-11T06:46:12.743Z,95.30
2023-01-11T06:48:40.127Z,95.51
2023-01-11T06:51:07.810Z,95.52
2023-01-11T06:53:35.297Z,95.43
2023-01-11T06:56:02.624Z,95.30
2023-01-11T06:58:29.998Z,95.31
2023-01-11T07:00:58.325Z,95.21
2023-01-11T07:03:26.558Z,95.17
2023-01-11T07:05:57.022Z,95.06
2023-01-11T07:08:26.053Z,95.06
2023-01-11T07:10:54.583Z,94.99
2023-01-11T07:13:21.979Z,94.97
2023-01-11T07:15:51.775Z,94.95
2023-01-11T07:18:20.149Z,95.00
2023-01-11T07:20:47.627Z,94.99
2023-01-11T07:23:15.168Z,94.97
2023-01-11T07:25:42.561Z,94.91
2023-01-11T07:28:10.140Z,94.91
2023-01-11T07:30:56.757Z,94.84
2023-01-11T07:33:26.409Z,94.72
2023-01-11T07:35:54.241Z,94.69
2023-01-11T07:38:21.884Z,94.70
2023-01-11T07:40:49.631Z,94.71
2023-01-11T07:43:19.490Z,94.61
2023-01-11T07:45:50.169Z,94.58
2023-01-11T07:48:27.064Z,94.51
2023-01-11T07:50:55.160Z,94.51
2023-01-11T07:53:25.572Z,94.57
2023-01-11T07:55:56.380Z,94.54
2023-01-11T07:58:24.168Z,94.39
2023-01-11T08:00:51.894Z,94.34
2023-01-11T08:03:19.527Z,94.18
2023-01-11T08:05:51.820Z,94.06
2023-01-11T08:08:19.345Z,93.96
2023-01-11T08:10:46.782Z,93.93
2023-01-11T08:13:33.737Z,93.86
2023-01-11T08:16:01.072Z,93.73
2023-01-11T08:18:28.448Z,93.59
2023-01-11T08:20:55.808Z,93.67
2023-01-11T08:23:23.219Z,93.63
2023-01-11T08:25:55.591Z,93.57
2023-01-11T08:28:22.935Z,93.58
2023-01-11T08:30:50.498Z,93.70
2023-01-11T08:33:17.917Z,93.53
2023-01-11T08:35:45.275Z,93.37
2023-01-11T08:38:12.711Z,93.50
2023-01-11T08:40:40.575Z,93.46
2023-01-11T08:43:07.934Z,93.36
2023-01-11T08:45:35.260Z,93.40
2023-01-11T08:48:02.658Z,93.37
2023-01-11T08:50:29.992Z,93.26
2023-01-11T08:52:57.337Z,93.32
2023-01-11T08:55:24.695Z,93.32
2023-01-11T08:57:52.067Z,93.27
2023-01-11T09:00:20.136Z,93.34
2023-01-11T09:02:47.806Z,93.24
2023-01-11T09:05:17.995Z,93.13
2023-01-11T09:07:46.206Z,93.19
2023-01-11T09:10:13.770Z,93.26
2023-01-11T09:12:41.107Z,93.41
2023-01-11T09:15:09.742Z,93.32
2023-01-11T09:17:37.255Z,93.20
2023-01-11T09:20:05.396Z,93.29
2023-01-11T09:22:33.821Z,93.11
2023-01-11T09:25:01.280Z,93.21
2023-01-11T09:27:28.659Z,93.10
2023-01-11T09:29:56.051Z,93.07
2023-01-11T09:32:23.563Z,93.06
2023-01-11T09:34:53.538Z,93.09
2023-01-11T09:37:22.676Z,93.08
2023-01-11T09:39:51.556Z,93.10
2023-01-11T09:42:34.893Z,93.24
2023-01-11T09:45:21.801Z,93.13
2023-01-11T09:48:03.754Z,93.19
2023-01-11T09:50:41.773Z,93.21
2023-01-11T09:53:38.348Z,93.27
2023-01-11T09:56:13.960Z,93.30
2023-01-11T09:59:16.981Z,93.32
2023-01-11T10:02:05.669Z,93.35
2023-01-11T10:05:04.169Z,93.38
2023-01-11T10:07:49.843Z,93.46
2023-01-11T10:18:23.252Z,93.56
2023-01-11T10:18:31.913Z,93.54
2023-01-11T10:20:24.641Z,93.45
2023-01-11T10:23:05.081Z,93.49
2023-01-11T10:25:42.811Z,93.57
2023-01-11T10:28:35.881Z,93.51
2023-01-11T10:31:44.903Z,93.53
2023-01-11T10:34:38.778Z,93.59
2023-01-11T10:37:36.197Z,93.69
2023-01-11T10:41:00.572Z,93.62
2023-01-11T10:43:32.832Z,93.50
2023-01-11T10:46:14.179Z,93.62
2023-01-11T10:48:45.145Z,93.71
2023-01-11T10:51:32.157Z,93.49
2023-01-11T10:54:16.225Z,93.48
2023-01-11T10:57:24.436Z,93.55
2023-01-11T11:00:10.441Z,93.43
2023-01-11T11:02:49.764Z,93.43
2023-01-11T11:05:44.948Z,93.54
2023-01-11T11:08:28.193Z,93.30
2023-01-11T11:11:17.765Z,93.15
2023-01-11T11:14:24.252Z,93.33
2023-01-11T11:17:26.444Z,93.14
2023-01-11T11:19:54.029Z,93.00
2023-01-11T11:22:21.394Z,92.90
2023-01-11T11:25:29.637Z,92.87
2023-01-11T11:28:03.169Z,92.79
2023-01-11T11:30:46.838Z,92.83
2023-01-11T11:33:23.994Z,92.74
2023-01-11T11:36:04.821Z,92.94
2023-01-11T11:38:41.942Z,92.85
2023-01-11T11:41:13.862Z,92.67
2023-01-11T11:43:48.413Z,92.80
2023-01-11T11:46:19.334Z,92.88
2023-01-11T11:49:18.665Z,92.83
2023-01-11T11:51:47.992Z,92.67
2023-01-11T11:54:29.401Z,93.09
2023-01-11T11:57:11.883Z,92.85
2023-01-11T11:59:45.187Z,92.92
2023-01-11T12:02:28.367Z,92.81
2023-01-11T12:04:59.811Z,92.77
2023-01-11T12:07:54.420Z,92.73
2023-01-11T12:10:28.711Z,92.86
2023-01-11T12:13:04.158Z,92.82
2023-01-11T12:15:34.527Z,92.80
2023-01-11T12:18:26.023Z,92.73
2023-01-11T12:20:54.762Z,92.66
2023-01-11T12:23:25.634Z,92.56
2023-01-11T12:26:14.907Z,92.66
2023-01-11T12:28:53.929Z,92.60
2023-01-11T12:31:46.207Z,92.77
2023-01-11T12:34:26.347Z,92.80
2023-01-11T12:37:16.390Z,92.67
2023-01-11T12:40:13.637Z,92.58
2023-01-11T12:42:55.873Z,92.62
2023-01-11T12:45:44.124Z,92.49
2023-01-11T12:48:17.295Z,92.40
2023-01-11T12:51:21.332Z,92.49
2023-01-11T12:54:05.309Z,92.55
2023-01-11T12:56:54.872Z,92.43
2023-01-11T12:59:53.222Z,92.54
2023-01-11T13:02:41.031Z,92.35
2023-01-11T13:06:00.546Z,92.24
2023-01-11T13:08:41.654Z,92.47
2023-01-11T13:11:36.796Z,92.23
2023-01-11T13:14:22.539Z,92.33
2023-01-11T13:17:33.345Z,92.34
2023-01-11T13:21:03.992Z,92.17
2023-01-11T13:23:42.112Z,92.32
2023-01-11T13:26:24.907Z,92.29
2023-01-11T13:29:00.985Z,92.27
2023-01-11T13:31:32.027Z,92.48
2023-01-11T13:34:19.005Z,92.42
2023-01-11T13:36:59.286Z,92.47
2023-01-11T13:39:42.050Z,92.40
2023-01-11T13:42:21.524Z,92.71
2023-01-11T13:45:46.540Z,92.52
2023-01-11T13:48:22.971Z,92.43
2023-01-11T13:51:18.390Z,92.53
2023-01-11T13:54:08.320Z,92.44
2023-01-11T13:56:42.114Z,92.44
2023-01-11T13:59:31.451Z,92.44
2023-01-11T14:02:33.010Z,92.43
2023-01-11T14:05:15.675Z,92.50
2023-01-11T14:08:44.801Z,92.37
2023-01-11T14:11:24.131Z,92.33
2023-01-11T14:14:39.874Z,92.29
2023-01-11T14:17:26.394Z,92.16
2023-01-11T14:20:20.407Z,92.05
2023-01-11T14:23:43.092Z,92.15
2023-01-11T14:26:25.059Z,92.11
2023-01-11T14:29:25.658Z,91.92
2023-01-11T14:32:29.682Z,91.92
2023-01-11T14:35:52.293Z,91.96
2023-01-11T14:38:56.819Z,92.09
2023-01-11T14:41:29.940Z,92.21
2023-01-11T14:44:36.832Z,92.24
2023-01-11T14:47:33.001Z,92.69
2023-01-11T14:50:41.090Z,92.57
2023-01-11T14:53:12.476Z,92.76
2023-01-11T14:55:45.214Z,93.02
2023-01-11T14:58:29.867Z,93.24
2023-01-11T15:00:57.205Z,93.37
2023-01-11T15:03:42.025Z,93.47
2023-01-11T15:06:20.429Z,93.45
2023-01-11T15:08:54.874Z,93.63
2023-01-11T15:11:31.348Z,93.59
2023-01-11T15:14:23.126Z,93.68
2023-01-11T15:17:18.106Z,93.67
2023-01-11T15:19:49.000Z,93.66
2023-01-11T15:22:32.911Z,93.73
2023-01-11T15:25:29.769Z,93.73
2023-01-11T15:28:00.137Z,93.75
2023-01-11T15:30:30.345Z,93.64
2023-01-11T15:33:19.813Z,93.67
2023-01-11T15:35:56.115Z,93.65
2023-01-11T15:38:39.489Z,93.63
2023-01-11T15:41:34.095Z,93.66
2023-01-11T15:44:15.117Z,93.61
2023-01-11T15:46:54.543Z,93.58
2023-01-11T15:49:45.158Z,93.49
2023-01-11T15:52:50.735Z,93.37
2023-01-11T15:56:11.587Z,93.29
2023-01-11T15:58:59.098Z,93.24
2023-01-11T16:01:30.719Z,93.18
2023-01-11T16:04:43.538Z,93.11
2023-01-11T16:07:27.307Z,93.15
2023-01-11T16:10:13.350Z,93.02
2023-01-11T16:13:25.263Z,92.97
2023-01-11T16:16:06.952Z,92.82
2023-01-11T16:18:43.525Z,92.86
2023-01-11T16:21:26.914Z,92.85
2023-01-11T16:23:55.523Z,92.74
2023-01-11T16:26:23.110Z,92.72
2023-01-11T16:28:56.755Z,92.73
2023-01-11T16:31:26.708Z,92.68
2023-01-11T16:33:54.287Z,92.60
2023-01-11T16:36:24.258Z,92.57
2023-01-11T16:39:04.954Z,92.49
2023-01-11T16:41:45.063Z,92.45
2023-01-11T16:44:33.827Z,92.51
2023-01-11T16:47:04.278Z,92.43
2023-01-11T16:49:32.146Z,92.40
2023-01-11T16:52:00.450Z,92.37
2023-01-11T16:54:32.636Z,92.28
2023-01-11T16:57:02.010Z,92.28
2023-01-11T16:59:30.933Z,92.24
2023-01-11T17:02:03.813Z,92.05
2023-01-11T17:04:49.968Z,92.08
2023-01-11T17:07:26.632Z,92.10
2023-01-11T17:10:14.099Z,92.04
2023-01-11T17:12:46.238Z,92.00
2023-01-11T17:15:54.933Z,92.04
2023-01-11T17:18:22.687Z,91.98
2023-01-11T17:20:54.187Z,91.95
2023-01-11T17:23:21.800Z,91.93
2023-01-11T17:25:56.735Z,91.95
2023-01-11T17:28:26.047Z,91.95
2023-01-11T17:30:54.369Z,91.96
2023-01-11T17:33:33.344Z,91.94
2023-01-11T17:36:03.001Z,92.06
2023-01-11T17:38:31.542Z,92.00
2023-01-11T17:41:01.208Z,91.96
2023-01-11T17:43:48.900Z,91.90
2023-01-11T17:46:22.057Z,91.92
2023-01-11T17:49:00.557Z,91.90
2023-01-11T17:51:33.006Z,91.91
2023-01-11T17:54:00.598Z,91.95
2023-01-11T17:56:41.787Z,91.96
2023-01-11T17:59:11.947Z,92.01
2023-01-11T18:01:44.965Z,91.99
2023-01-11T18:04:19.534Z,92.04
2023-01-11T18:06:48.810Z,92.00
2023-01-11T18:09:30.612Z,91.98
2023-01-11T18:12:18.308Z,91.97
2023-01-11T18:14:59.684Z,91.97
2023-01-11T18:17:33.223Z,91.97
2023-01-11T18:20:10.729Z,91.94
2023-01-11T18:22:41.898Z,91.93
2023-01-11T18:25:20.165Z,91.97
2023-01-11T18:27:48.770Z,92.01
2023-01-11T18:30:42.307Z,92.03
2023-01-11T18:33:20.696Z,91.97
2023-01-11T18:35:51.994Z,91.96
2023-01-11T18:38:32.827Z,91.97
2023-01-11T18:41:26.601Z,91.92
2023-01-11T18:43:55.424Z,91.92
2023-01-11T18:46:22.860Z,91.91
2023-01-11T18:48:50.516Z,91.93
2023-01-11T18:51:35.792Z,91.96
2023-01-11T18:54:03.414Z,91.96
2023-01-11T18:56:30.748Z,92.03
2023-01-11T18:58:58.288Z,91.99
2023-01-11T19:01:25.751Z,91.94
2023-01-11T19:03:53.262Z,91.82
2023-01-11T19:06:22.736Z,91.68
2023-01-11T19:08:50.275Z,91.60
2023-01-11T19:11:17.930Z,91.63
2023-01-11T19:13:46.804Z,91.67
2023-01-11T19:16:15.334Z,91.62
2023-01-11T19:18:42.761Z,91.63
2023-01-11T19:21:11.939Z,91.63
2023-01-11T19:23:40.718Z,91.61
2023-01-11T19:26:08.238Z,91.60
2023-01-11T19:28:37.095Z,91.51
2023-01-11T19:31:09.353Z,91.54
2023-01-11T19:33:37.229Z,91.49
2023-01-11T19:36:09.291Z,91.44
2023-01-11T19:38:37.121Z,91.44
2023-01-11T19:41:08.122Z,91.39
2023-01-11T19:43:36.535Z,91.38
2023-01-11T19:46:04.176Z,91.35
2023-01-11T19:48:34.763Z,91.28
2023-01-11T19:51:11.334Z,91.28
2023-01-11T19:53:38.786Z,91.23
2023-01-11T19:56:08.930Z,91.13
2023-01-11T19:58:38.045Z,91.01
2023-01-11T20:01:11.517Z,90.94
2023-01-11T20:03:42.671Z,90.93
2023-01-11T20:06:10.326Z,90.92
2023-01-11T20:08:40.997Z,90.95
2023-01-11T20:11:12.371Z,90.96
2023-01-11T20:13:41.183Z,91.00
2023-01-11T20:16:13.043Z,91.02
2023-01-11T20:18:42.424Z,90.93
2023-01-11T20:21:11.096Z,90.91
2023-01-11T20:23:38.416Z,90.91
2023-01-11T20:26:14.918Z,90.92
2023-01-11T20:28:45.516Z,90.92
2023-01-11T20:31:13.090Z,90.96
2023-01-11T20:33:40.596Z,90.97
2023-01-11T20:36:17.608Z,91.00
2023-01-11T20:38:46.340Z,91.02
2023-01-11T20:41:36.213Z,91.08
2023-01-11T20:44:08.975Z,91.16
2023-01-11T20:46:37.554Z,91.20
2023-01-11T20:49:06.443Z,91.28
2023-01-11T20:51:35.211Z,91.32
2023-01-11T20:54:04.062Z,91.38
2023-01-11T20:56:33.182Z,91.41
2023-01-11T20:59:01.918Z,91.49
2023-01-11T21:01:30.455Z,91.50
2023-01-11T21:04:02.938Z,91.43
2023-01-11T21:06:33.215Z,91.41
2023-01-11T21:09:02.463Z,91.46
2023-01-11T21:11:31.403Z,91.48
2023-01-11T21:14:01.171Z,91.53
2023-01-11T21:16:30.235Z,91.58
2023-01-11T21:19:01.620Z,91.69
2023-01-11T21:21:32.724Z,91.72
2023-01-11T21:24:03.511Z,91.68
2023-01-11T21:26:33.191Z,91.72
2023-01-11T21:29:04.142Z,91.74
2023-01-11T21:31:35.299Z,91.76
2023-01-11T21:34:03.849Z,91.77
2023-01-11T21:36:31.972Z,91.74
2023-01-11T21:39:00.526Z,91.77
2023-01-11T21:41:48.709Z,91.80
2023-01-11T21:44:18.773Z,91.81
2023-01-11T21:46:46.804Z,91.84
2023-01-11T21:49:15.302Z,91.78
2023-01-11T21:51:43.444Z,91.79
2023-01-11T21:54:14.850Z,91.75
2023-01-11T21:56:42.429Z,91.74
2023-01-11T21:59:10.206Z,91.73
2023-01-11T22:01:40.433Z,91.71
2023-01-11T22:04:12.176Z,91.71
2023-01-11T22:06:43.146Z,91.78
2023-01-11T22:09:12.120Z,91.73
2023-01-11T22:11:39.913Z,91.68
2023-01-11T22:14:08.860Z,91.69
2023-01-11T22:16:37.798Z,91.68
2023-01-11T22:19:07.752Z,91.72
2023-01-11T22:21:37.690Z,91.62
2023-01-11T22:24:08.964Z,91.54
2023-01-11T22:26:39.057Z,91.51
2023-01-11T22:29:12.365Z,91.46
2023-01-11T22:31:51.599Z,91.43
2023-01-11T22:34:19.649Z,91.36
2023-01-11T22:36:47.345Z,91.36
2023-01-11T22:39:17.133Z,91.43
2023-01-11T22:41:46.005Z,91.40
2023-01-11T22:44:14.442Z,91.35
2023-01-11T22:46:42.850Z,91.29
2023-01-11T22:49:11.635Z,91.34
2023-01-11T22:51:41.925Z,91.39
2023-01-11T22:54:10.786Z,91.47
2023-01-11T22:56:38.480Z,91.37
2023-01-11T22:59:06.426Z,91.39
2023-01-11T23:01:42.923Z,91.50
2023-01-11T23:04:14.083Z,91.47
2023-01-11T23:06:42.752Z,91.47
2023-01-11T23:09:15.908Z,91.39
2023-01-11T23:12:03.358Z,91.34
2023-01-11T23:14:33.029Z,91.27
2023-01-11T23:17:06.090Z,91.28
2023-01-11T23:19:36.886Z,91.20
2023-01-11T23:22:05.760Z,91.11
2023-01-11T23:24:33.529Z,91.03
2023-01-11T23:27:00.941Z,90.99
2023-01-11T23:29:28.689Z,90.98
2023-01-11T23:31:56.135Z,91.01
2023-01-11T23:34:23.649Z,91.06
2023-01-11T23:36:51.099Z,91.11
2023-01-11T23:39:18.867Z,91.13
2023-01-11T23:42:05.007Z,91.20
2023-01-11T23:44:32.422Z,91.17
2023-01-11T23:47:18.851Z,91.18
2023-01-11T23:49:46.219Z,91.17
2023-01-11T23:52:13.633Z,91.14
2023-01-11T23:54:41.375Z,91.14
2023-01-11T23:57:12.253Z,91.18
2023-01-11T23:59:41.905Z,91.13
